Walnuttown, Pennsylvania
Current Conditions -  °F | °C
As of 5:54 AM on Saturday 22 Nov 2014 (Local Time) from KRDG Reporting Station
Clear Clear  
Wind Chill: 21°   Ceiling: Unl
Heat Index: 21°   Visibility: 10mi
Dew Point: 10°   Wind: 0mph
Humidity: 63%   Direction: NA
Pressure: 30.48"   Gusts: NA
Location:  40.4504°N, 75.8012°W
Report Text: KRDG 221054Z 00000KT 10SM CLR M06/M12 A3048 RMK AO2 SLP332 T10611122
Loading
Personal Weather Stations






























Interactive Weather Map New forecast layout! Learn more

10-Day Weather Forecast

Advertisements
Track Severe Weather on mobile